Time;durP1;ratioP1;P1;durP2;ratioP2;P2;SDS_P1;SDS_P2;PMS_P1;PMS_P2;Temp;Humidity;BMP_temperature;BMP_pressure;BME280_temperature;BME280_humidity;BME280_pressure;Samples;Min_cycle;Max_cycle;Signal;HPM_P1;HPM_P2
2022/06/05 00:00:03;;;;;;;;;;;18.20;67.00;;;;;;5012739;28;19913;-85
2022/06/05 00:02:44;;;;;;;;;;;18.10;67.60;;;;;;5013426;28;20390;-86
2022/06/05 00:05:18;;;;;;;;;;;18.00;68.10;;;;;;5010026;28;20020;-85
2022/06/05 00:07:47;;;;;;;;;;;18.00;67.90;;;;;;5012747;28;19925;-85
2022/06/05 00:10:13;;;;;;;;;;;18.00;68.10;;;;;;5029264;28;19909;-85
2022/06/05 00:12:57;;;;;;;;;;;18.00;68.10;;;;;;5029662;28;19916;-86
2022/06/05 00:15:23;;;;;;;;;;;17.90;68.40;;;;;;5027429;28;19964;-85
2022/06/05 00:17:49;;;;;;;;;;;17.80;68.80;;;;;;5030600;28;19917;-85
2022/06/05 00:20:15;;;;;;;;;;;18.10;68.20;;;;;;5012417;28;19945;-85
2022/06/05 00:22:40;;;;;;;;;;;17.90;68.70;;;;;;5014636;28;19909;-86
2022/06/05 00:25:07;;;;;;;;;;;17.90;69.20;;;;;;5036192;28;19912;-86
2022/06/05 00:27:46;;;;;;;;;;;17.80;69.10;;;;;;5026115;28;19913;-85
2022/06/05 00:30:14;;;;;;;;;;;17.80;68.90;;;;;;5014913;28;20407;-86
2022/06/05 00:32:45;;;;;;;;;;;17.80;69.00;;;;;;5016231;28;19920;-85
2022/06/05 00:35:15;;;;;;;;;;;17.70;69.20;;;;;;5016279;28;19913;-85
2022/06/05 00:37:49;;;;;;;;;;;17.80;68.80;;;;;;5016580;28;20000;-86
2022/06/05 00:40:26;;;;;;;;;;;17.80;68.80;;;;;;5031175;28;19992;-85
2022/06/05 00:42:52;;;;;;;;;;;17.60;69.30;;;;;;5033273;28;20002;-85
2022/06/05 00:45:19;;;;;;;;;;;17.60;69.60;;;;;;5026991;28;19967;-85
2022/06/05 00:47:45;;;;;;;;;;;17.70;68.90;;;;;;5016418;28;19909;-86
2022/06/05 00:50:10;;;;;;;;;;;17.60;69.00;;;;;;5032826;28;19929;-86
2022/06/05 00:52:38;;;;;;;;;;;17.70;69.10;;;;;;5032679;28;19909;-84
2022/06/05 00:55:05;;;;;;;;;;;17.80;68.50;;;;;;5033175;28;19936;-85
2022/06/05 00:57:32;;;;;;;;;;;17.80;68.60;;;;;;5033660;28;20473;-85
2022/06/05 00:59:58;;;;;;;;;;;17.60;69.20;;;;;;5012945;28;19950;-85
2022/06/05 01:02:23;;;;;;;;;;;17.50;69.80;;;;;;5014387;28;19910;-85
2022/06/05 01:04:50;;;;;;;;;;;17.30;70.40;;;;;;5012705;28;19936;-84
2022/06/05 01:07:16;;;;;;;;;;;17.30;70.80;;;;;;5012941;28;19914;-85
2022/06/05 01:09:42;;;;;;;;;;;17.20;71.00;;;;;;5011527;28;19910;-85
2022/06/05 01:12:18;;;;;;;;;;;17.30;70.30;;;;;;5014307;28;19985;-84
2022/06/05 01:14:56;;;;;;;;;;;17.30;70.90;;;;;;5048990;28;19971;-85
2022/06/05 01:17:31;;;;;;;;;;;17.30;70.30;;;;;;5018074;28;19913;-85
2022/06/05 01:20:03;;;;;;;;;;;17.30;71.00;;;;;;5031869;28;19913;-83
2022/06/05 01:22:28;;;;;;;;;;;17.40;70.20;;;;;;5032710;28;19913;-85
2022/06/05 01:24:53;;;;;;;;;;;17.30;70.60;;;;;;5013607;28;20012;-85
2022/06/05 01:27:22;;;;;;;;;;;17.30;70.50;;;;;;5035859;28;19949;-85
2022/06/05 01:29:53;;;;;;;;;;;17.40;70.10;;;;;;5030859;28;19909;-84
2022/06/05 01:32:28;;;;;;;;;;;17.50;69.80;;;;;;5016971;28;20348;-85
2022/06/05 01:35:03;;;;;;;;;;;17.30;70.40;;;;;;5019944;28;19909;-85
2022/06/05 01:37:35;;;;;;;;;;;17.30;70.30;;;;;;5018852;28;19929;-84
2022/06/05 01:40:20;;;;;;;;;;;17.30;70.40;;;;;;5031836;28;20279;-84
2022/06/05 01:42:57;;;;;;;;;;;17.10;71.30;;;;;;5014631;28;19967;-85
2022/06/05 01:45:38;;;;;;;;;;;17.10;71.60;;;;;;5014905;28;20268;-85
2022/06/05 01:48:04;;;;;;;;;;;17.00;72.20;;;;;;5021777;28;20003;-85
2022/06/05 01:50:47;;;;;;;;;;;16.90;72.40;;;;;;5025510;28;19944;-85
2022/06/05 01:53:18;;;;;;;;;;;17.10;71.60;;;;;;5037145;28;19909;-85
2022/06/05 01:55:44;;;;;;;;;;;17.10;71.10;;;;;;5049213;28;19920;-85
2022/06/05 01:58:12;;;;;;;;;;;17.20;70.80;;;;;;5032808;28;20371;-85
2022/06/05 02:00:37;;;;;;;;;;;17.10;71.20;;;;;;5014333;28;20235;-85
2022/06/05 02:03:11;;;;;;;;;;;17.00;71.50;;;;;;5016028;28;19932;-85
2022/06/05 02:05:49;;;;;;;;;;;17.10;71.10;;;;;;5031721;28;19917;-85
2022/06/05 02:08:17;;;;;;;;;;;17.00;71.80;;;;;;5014161;28;19913;-85
2022/06/05 02:10:48;;;;;;;;;;;16.90;72.00;;;;;;5030895;28;19913;-84
2022/06/05 02:13:14;;;;;;;;;;;16.90;72.10;;;;;;5030575;28;20476;-84
2022/06/05 02:15:39;;;;;;;;;;;16.70;72.50;;;;;;5032224;28;19944;-84
2022/06/05 02:18:05;;;;;;;;;;;16.60;73.00;;;;;;5014910;28;20004;-84
2022/06/05 02:20:31;;;;;;;;;;;16.70;72.50;;;;;;5031506;28;19921;-85
2022/06/05 02:22:57;;;;;;;;;;;16.80;72.20;;;;;;5014754;28;20307;-84
2022/06/05 02:25:24;;;;;;;;;;;16.70;72.50;;;;;;5028550;28;20307;-85
2022/06/05 02:27:50;;;;;;;;;;;16.60;73.00;;;;;;5014697;28;19909;-84
2022/06/05 02:30:16;;;;;;;;;;;16.80;72.40;;;;;;5013046;28;20008;-84
2022/06/05 02:32:58;;;;;;;;;;;16.90;72.10;;;;;;5010743;28;19909;-84
2022/06/05 02:35:23;;;;;;;;;;;16.90;71.90;;;;;;5025524;28;20038;-85
2022/06/05 02:37:58;;;;;;;;;;;16.80;72.00;;;;;;5052665;28;20080;-85
2022/06/05 02:40:32;;;;;;;;;;;16.70;72.30;;;;;;5042983;28;19935;-83
2022/06/05 02:42:57;;;;;;;;;;;16.80;72.20;;;;;;5017803;28;20295;-85
2022/06/05 02:45:22;;;;;;;;;;;16.70;72.20;;;;;;5034684;28;19913;-85
2022/06/05 02:47:48;;;;;;;;;;;16.60;72.80;;;;;;5021820;28;19985;-84
2022/06/05 02:50:13;;;;;;;;;;;16.60;72.80;;;;;;5028730;28;19909;-84
2022/06/05 02:52:41;;;;;;;;;;;16.60;73.00;;;;;;5030536;28;19917;-85
2022/06/05 02:55:11;;;;;;;;;;;16.40;73.60;;;;;;5029801;28;19913;-84
2022/06/05 02:57:37;;;;;;;;;;;16.60;72.70;;;;;;5030332;28;19910;-85
2022/06/05 03:00:07;;;;;;;;;;;16.50;72.90;;;;;;5029295;28;19920;-84
2022/06/05 03:05:16;;;;;;;;;;;16.50;73.00;;;;;;5010892;28;20299;-84
2022/06/05 03:07:42;;;;;;;;;;;16.50;73.10;;;;;;4993261;28;19909;-84
2022/06/05 03:10:08;;;;;;;;;;;16.50;73.00;;;;;;4992110;28;20316;-84
2022/06/05 03:12:33;;;;;;;;;;;16.50;73.00;;;;;;4997024;28;19923;-84
2022/06/05 03:15:01;;;;;;;;;;;16.30;73.90;;;;;;5027960;28;20019;-84
2022/06/05 03:17:28;;;;;;;;;;;16.40;73.50;;;;;;5015771;28;19913;-84
2022/06/05 03:19:53;;;;;;;;;;;16.50;73.20;;;;;;5011496;28;19921;-85
2022/06/05 03:22:18;;;;;;;;;;;16.50;73.20;;;;;;5030055;28;19920;-84
2022/06/05 03:24:44;;;;;;;;;;;16.30;73.70;;;;;;5011367;28;19913;-84
2022/06/05 03:27:09;;;;;;;;;;;16.30;73.60;;;;;;5028653;28;20420;-84
2022/06/05 03:29:35;;;;;;;;;;;16.40;73.60;;;;;;5027880;28;20001;-84
2022/06/05 03:32:00;;;;;;;;;;;16.20;74.10;;;;;;5012247;28;20014;-84
2022/06/05 03:34:26;;;;;;;;;;;16.30;73.80;;;;;;5029729;28;19917;-84
2022/06/05 03:36:51;;;;;;;;;;;16.20;74.00;;;;;;5029522;28;19909;-86
2022/06/05 03:39:17;;;;;;;;;;;16.00;74.70;;;;;;5027809;28;20359;-84
2022/06/05 03:41:42;;;;;;;;;;;16.10;74.40;;;;;;5017762;28;19935;-84
2022/06/05 03:44:08;;;;;;;;;;;16.10;74.60;;;;;;5012075;28;20383;-84
2022/06/05 03:46:34;;;;;;;;;;;16.10;74.30;;;;;;5012218;28;20285;-86
2022/06/05 03:49:00;;;;;;;;;;;16.10;74.60;;;;;;5029486;28;19910;-85
2022/06/05 03:51:25;;;;;;;;;;;16.10;74.50;;;;;;5029751;28;19940;-84
2022/06/05 03:53:51;;;;;;;;;;;16.20;74.30;;;;;;5012387;28;19921;-85
2022/06/05 03:56:18;;;;;;;;;;;16.30;74.10;;;;;;5009204;28;20346;-86
2022/06/05 03:58:44;;;;;;;;;;;16.20;74.00;;;;;;5008133;28;19948;-85
2022/06/05 04:01:10;;;;;;;;;;;16.20;74.10;;;;;;5011833;28;20391;-85
2022/06/05 04:03:36;;;;;;;;;;;16.10;74.30;;;;;;5030023;28;19913;-85
2022/06/05 04:06:04;;;;;;;;;;;16.10;74.50;;;;;;5033206;28;20000;-85
2022/06/05 04:08:29;;;;;;;;;;;16.10;74.60;;;;;;5015526;28;19917;-83
2022/06/05 04:10:55;;;;;;;;;;;16.10;74.50;;;;;;5018035;28;19936;-85
2022/06/05 04:13:20;;;;;;;;;;;16.10;74.70;;;;;;5029157;28;19991;-84
2022/06/05 04:15:46;;;;;;;;;;;16.30;73.90;;;;;;5026995;28;19913;-86
2022/06/05 04:18:11;;;;;;;;;;;16.20;73.90;;;;;;5017897;28;19919;-84
2022/06/05 04:20:37;;;;;;;;;;;16.10;74.40;;;;;;5016752;28;20008;-85
2022/06/05 04:23:02;;;;;;;;;;;16.20;74.30;;;;;;5016103;28;19960;-85
2022/06/05 04:25:28;;;;;;;;;;;16.10;74.30;;;;;;5032780;28;19913;-84
2022/06/05 04:27:54;;;;;;;;;;;16.10;74.60;;;;;;5017693;28;19935;-85
2022/06/05 04:30:20;;;;;;;;;;;16.30;74.10;;;;;;5016372;28;19909;-86
2022/06/05 04:32:45;;;;;;;;;;;16.40;73.70;;;;;;5035328;28;19916;-85
2022/06/05 04:35:11;;;;;;;;;;;16.20;74.40;;;;;;5016446;28;19947;-85
2022/06/05 04:37:36;;;;;;;;;;;16.20;74.30;;;;;;5016027;28;20012;-85
2022/06/05 04:40:02;;;;;;;;;;;16.20;74.10;;;;;;5015944;28;20435;-84
2022/06/05 04:42:28;;;;;;;;;;;16.30;74.10;;;;;;5013051;28;20000;-84
2022/06/05 04:44:53;;;;;;;;;;;16.30;74.50;;;;;;5007793;28;20294;-84
2022/06/05 04:47:19;;;;;;;;;;;16.30;73.90;;;;;;5034253;28;19999;-85
2022/06/05 04:49:44;;;;;;;;;;;16.30;74.10;;;;;;5015139;28;19959;-84
2022/06/05 04:52:10;;;;;;;;;;;16.30;74.40;;;;;;5033373;28;20292;-84
2022/06/05 04:54:35;;;;;;;;;;;16.30;74.40;;;;;;5015197;28;19917;-84
2022/06/05 04:57:01;;;;;;;;;;;16.30;74.40;;;;;;5037473;28;19909;-84
2022/06/05 04:59:26;;;;;;;;;;;16.40;74.10;;;;;;5034867;28;19909;-85
2022/06/05 05:01:52;;;;;;;;;;;16.50;73.50;;;;;;5031500;28;20399;-85
2022/06/05 05:04:17;;;;;;;;;;;16.50;73.50;;;;;;5031496;28;19917;-84
2022/06/05 05:06:43;;;;;;;;;;;16.60;73.20;;;;;;5014690;28;19921;-85
2022/06/05 05:09:09;;;;;;;;;;;16.50;73.80;;;;;;5013611;28;19913;-86
2022/06/05 05:11:35;;;;;;;;;;;16.50;73.80;;;;;;5014897;28;19919;-85
2022/06/05 05:14:00;;;;;;;;;;;16.50;73.70;;;;;;5015051;28;20038;-84
2022/06/05 05:16:27;;;;;;;;;;;16.50;73.40;;;;;;5012946;28;19913;-85
2022/06/05 05:18:53;;;;;;;;;;;16.50;73.90;;;;;;5032201;28;20051;-86
2022/06/05 05:21:20;;;;;;;;;;;16.50;73.80;;;;;;5031672;28;20347;-84
2022/06/05 05:23:46;;;;;;;;;;;16.50;73.50;;;;;;5010645;28;19917;-85
2022/06/05 05:26:12;;;;;;;;;;;16.50;73.70;;;;;;5019731;28;19917;-84
2022/06/05 05:28:38;;;;;;;;;;;16.50;73.50;;;;;;5032196;28;19915;-86
2022/06/05 05:31:12;;;;;;;;;;;16.70;72.60;;;;;;5013774;28;19916;-85
2022/06/05 05:33:38;;;;;;;;;;;16.80;72.10;;;;;;5032025;28;19917;-84
2022/06/05 05:36:04;;;;;;;;;;;16.60;72.90;;;;;;5014029;28;20292;-85
2022/06/05 05:38:29;;;;;;;;;;;16.60;73.50;;;;;;5015931;28;19917;-84
2022/06/05 05:43:40;;;;;;;;;;;16.70;72.80;;;;;;5036102;28;20035;-85
2022/06/05 05:46:09;;;;;;;;;;;16.70;73.10;;;;;;5016613;28;20396;-85
2022/06/05 05:48:35;;;;;;;;;;;16.70;72.90;;;;;;5017725;28;20403;-85
2022/06/05 05:51:00;;;;;;;;;;;16.90;72.80;;;;;;5019610;28;19909;-85
2022/06/05 05:53:26;;;;;;;;;;;16.90;73.10;;;;;;5024877;28;19913;-85
2022/06/05 05:55:51;;;;;;;;;;;17.00;72.80;;;;;;5036464;28;19913;-85
2022/06/05 05:58:17;;;;;;;;;;;17.20;71.70;;;;;;5017002;28;19924;-85
2022/06/05 06:00:42;;;;;;;;;;;17.20;71.60;;;;;;5030289;28;20406;-85
2022/06/05 06:03:08;;;;;;;;;;;17.30;71.20;;;;;;5014343;28;19921;-85
2022/06/05 06:05:34;;;;;;;;;;;17.40;71.30;;;;;;5013076;28;19964;-85
2022/06/05 06:07:59;;;;;;;;;;;17.20;72.00;;;;;;5015212;28;19910;-85
2022/06/05 06:10:25;;;;;;;;;;;17.60;70.40;;;;;;5030330;28;19935;-85
2022/06/05 06:12:50;;;;;;;;;;;17.50;71.00;;;;;;5017633;28;19939;-85
2022/06/05 06:15:15;;;;;;;;;;;17.60;70.50;;;;;;5021542;28;19917;-84
2022/06/05 06:17:41;;;;;;;;;;;17.70;70.10;;;;;;5014087;28;19913;-84
2022/06/05 06:20:07;;;;;;;;;;;17.60;70.30;;;;;;5011851;28;19957;-84
2022/06/05 06:22:34;;;;;;;;;;;17.70;70.00;;;;;;5013690;28;19920;-85
2022/06/05 06:24:59;;;;;;;;;;;17.60;70.70;;;;;;5031172;28;19913;-85
2022/06/05 06:27:26;;;;;;;;;;;17.70;69.90;;;;;;5030147;28;20402;-85
2022/06/05 06:29:52;;;;;;;;;;;17.60;70.70;;;;;;5013614;28;19909;-85
2022/06/05 06:32:17;;;;;;;;;;;17.70;70.50;;;;;;5037394;28;20433;-85
2022/06/05 06:34:43;;;;;;;;;;;17.60;71.20;;;;;;5012433;28;19913;-86
2022/06/05 06:37:08;;;;;;;;;;;17.60;71.10;;;;;;5029249;28;20008;-85
2022/06/05 06:39:33;;;;;;;;;;;17.80;69.90;;;;;;5013507;28;20012;-84
2022/06/05 06:41:59;;;;;;;;;;;17.90;69.70;;;;;;5016018;28;19913;-84
2022/06/05 06:44:25;;;;;;;;;;;17.80;70.00;;;;;;5038366;28;20052;-86
2022/06/05 06:46:51;;;;;;;;;;;18.00;69.50;;;;;;5027265;28;19933;-87
2022/06/05 06:49:16;;;;;;;;;;;17.80;70.20;;;;;;5017121;28;19923;-86
2022/06/05 06:51:42;;;;;;;;;;;17.80;70.20;;;;;;5013583;28;19913;-86
2022/06/05 06:54:08;;;;;;;;;;;17.70;70.80;;;;;;5010113;28;19917;-86
2022/06/05 06:56:34;;;;;;;;;;;17.70;71.40;;;;;;5016569;28;19915;-87
2022/06/05 06:59:00;;;;;;;;;;;17.80;71.10;;;;;;5013208;28;19933;-86
2022/06/05 07:01:26;;;;;;;;;;;18.00;70.60;;;;;;5011586;28;19989;-87
2022/06/05 07:03:51;;;;;;;;;;;18.10;70.10;;;;;;5020977;28;19925;-86
2022/06/05 07:06:22;;;;;;;;;;;17.90;70.90;;;;;;5029449;28;20192;-86
2022/06/05 07:08:49;;;;;;;;;;;17.90;70.70;;;;;;5019524;28;19964;-86
2022/06/05 07:11:15;;;;;;;;;;;18.00;70.30;;;;;;5012926;28;19921;-86
2022/06/05 07:13:41;;;;;;;;;;;18.00;70.70;;;;;;5031829;28;20340;-86
2022/06/05 07:16:07;;;;;;;;;;;18.00;70.50;;;;;;5030511;28;19971;-86
2022/06/05 07:18:33;;;;;;;;;;;18.10;70.10;;;;;;5012436;28;19923;-86
2022/06/05 07:21:05;;;;;;;;;;;18.00;70.90;;;;;;5030981;28;19921;-86
2022/06/05 07:23:31;;;;;;;;;;;18.20;70.70;;;;;;5013318;28;19932;-85
2022/06/05 07:25:57;;;;;;;;;;;18.30;69.90;;;;;;5041325;28;19988;-86
2022/06/05 07:28:22;;;;;;;;;;;18.50;69.20;;;;;;5033042;28;19959;-87
2022/06/05 07:30:49;;;;;;;;;;;18.30;70.30;;;;;;5017688;28;19913;-86
2022/06/05 07:33:14;;;;;;;;;;;18.40;70.00;;;;;;5013720;28;19913;-86
2022/06/05 07:35:41;;;;;;;;;;;18.40;70.60;;;;;;5022237;28;19909;-85
2022/06/05 07:38:07;;;;;;;;;;;18.50;70.60;;;;;;5027014;28;19913;-85
2022/06/05 07:40:36;;;;;;;;;;;18.60;70.20;;;;;;5026549;28;20308;-85
2022/06/05 07:43:02;;;;;;;;;;;18.90;68.90;;;;;;5014067;28;20079;-86
2022/06/05 07:45:27;;;;;;;;;;;19.00;69.40;;;;;;5014798;28;20000;-86
2022/06/05 07:47:53;;;;;;;;;;;18.90;70.10;;;;;;5012909;28;19951;-87
2022/06/05 07:50:18;;;;;;;;;;;18.90;69.90;;;;;;5012913;28;19962;-87
2022/06/05 07:55:28;;;;;;;;;;;19.00;69.80;;;;;;5010809;28;19971;-87
2022/06/05 07:57:54;;;;;;;;;;;19.00;69.90;;;;;;5030448;28;19909;-87
2022/06/05 08:00:21;;;;;;;;;;;18.90;70.80;;;;;;5011867;28;19914;-87
2022/06/05 08:02:48;;;;;;;;;;;19.00;70.10;;;;;;5013240;28;19925;-87
2022/06/05 08:05:13;;;;;;;;;;;19.10;70.40;;;;;;5012368;28;19913;-86
2022/06/05 08:07:38;;;;;;;;;;;19.10;70.70;;;;;;5012552;28;19932;-86
2022/06/05 08:10:05;;;;;;;;;;;19.10;70.20;;;;;;5011367;28;19928;-87
2022/06/05 08:12:31;;;;;;;;;;;19.20;70.40;;;;;;5030738;28;19957;-87
2022/06/05 08:14:57;;;;;;;;;;;19.10;69.80;;;;;;5025760;28;19910;-86
2022/06/05 08:17:27;;;;;;;;;;;19.10;70.00;;;;;;5014463;28;19928;-87
2022/06/05 08:19:53;;;;;;;;;;;19.30;69.80;;;;;;5012358;28;19966;-88
2022/06/05 08:22:20;;;;;;;;;;;19.30;69.60;;;;;;5008823;28;20361;-87
2022/06/05 08:24:45;;;;;;;;;;;19.50;70.20;;;;;;5024523;28;19913;-86
2022/06/05 08:27:13;;;;;;;;;;;19.70;68.50;;;;;;5023976;28;19916;-87
2022/06/05 08:29:46;;;;;;;;;;;19.70;69.20;;;;;;5026364;28;20398;-87
2022/06/05 08:32:13;;;;;;;;;;;19.80;68.90;;;;;;5031341;28;19913;-87
2022/06/05 08:35:13;;;;;;;;;;;19.90;68.90;;;;;;5014781;28;19913;-84
2022/06/05 08:43:26;;;;;;;;;;;20.30;68.00;;;;;;5026336;28;19916;-85
2022/06/05 08:46:15;;;;;;;;;;;20.30;68.40;;;;;;5010794;28;20012;-86
2022/06/05 08:48:53;;;;;;;;;;;20.40;67.40;;;;;;5012547;28;20043;-88
2022/06/05 08:51:39;;;;;;;;;;;20.50;67.90;;;;;;4992705;28;20379;-86
2022/06/05 08:54:20;;;;;;;;;;;20.50;68.50;;;;;;5013650;28;19913;-87
2022/06/05 08:56:50;;;;;;;;;;;20.60;67.70;;;;;;4996551;28;19910;-86
2022/06/05 08:59:26;;;;;;;;;;;20.80;68.50;;;;;;4994595;28;19915;-85
2022/06/05 09:01:54;;;;;;;;;;;20.90;68.60;;;;;;5015610;28;20436;-84
2022/06/05 09:04:27;;;;;;;;;;;21.10;67.30;;;;;;5029628;28;19920;-85
2022/06/05 09:06:55;;;;;;;;;;;21.30;66.30;;;;;;5013537;28;19910;-86
2022/06/05 09:09:22;;;;;;;;;;;21.50;65.80;;;;;;5011761;28;19918;-85
2022/06/05 09:12:09;;;;;;;;;;;21.60;65.60;;;;;;5012637;28;19922;-86
2022/06/05 09:14:37;;;;;;;;;;;21.60;64.00;;;;;;5002814;28;19909;-87
2022/06/05 09:17:14;;;;;;;;;;;21.80;65.00;;;;;;5015850;28;20101;-86
2022/06/05 09:19:39;;;;;;;;;;;21.80;64.90;;;;;;5015297;28;19909;-86
2022/06/05 09:22:05;;;;;;;;;;;21.80;64.00;;;;;;5011772;28;19924;-87
2022/06/05 09:24:36;;;;;;;;;;;22.00;65.40;;;;;;5014577;28;19945;-87
2022/06/05 09:27:10;;;;;;;;;;;22.10;64.60;;;;;;5043617;28;19913;-85
2022/06/05 09:29:43;;;;;;;;;;;22.10;64.70;;;;;;5032929;28;19936;-85
2022/06/05 09:32:27;;;;;;;;;;;22.20;65.10;;;;;;5033681;28;19913;-85
2022/06/05 09:34:54;;;;;;;;;;;22.40;65.20;;;;;;5032637;28;19916;-85
2022/06/05 09:37:23;;;;;;;;;;;22.50;66.60;;;;;;5032503;28;19909;-86
2022/06/05 09:39:54;;;;;;;;;;;22.60;64.30;;;;;;5031104;28;19913;-84
2022/06/05 09:42:38;;;;;;;;;;;22.50;64.90;;;;;;5015973;28;19916;-85
2022/06/05 09:45:22;;;;;;;;;;;22.40;65.10;;;;;;5031571;28;20747;-86
2022/06/05 09:47:57;;;;;;;;;;;22.40;66.10;;;;;;5032981;28;19920;-86
2022/06/05 09:50:26;;;;;;;;;;;22.30;65.10;;;;;;5014703;28;20008;-86
2022/06/05 09:52:52;;;;;;;;;;;22.10;66.10;;;;;;5032091;28;19917;-84
2022/06/05 09:55:19;;;;;;;;;;;22.20;66.70;;;;;;5032199;28;19913;-86
2022/06/05 09:58:24;;;;;;;;;;;22.10;66.80;;;;;;5014207;28;20008;-85
2022/06/05 10:00:53;;;;;;;;;;;22.20;67.50;;;;;;5013436;28;19920;-86
2022/06/05 10:03:20;;;;;;;;;;;22.20;67.40;;;;;;5013885;28;19936;-84
2022/06/05 10:06:05;;;;;;;;;;;22.40;67.30;;;;;;5029487;28;19971;-86
2022/06/05 10:08:37;;;;;;;;;;;22.50;67.30;;;;;;5013854;28;19921;-86
2022/06/05 10:11:05;;;;;;;;;;;22.70;66.60;;;;;;5013044;28;19913;-86
2022/06/05 10:13:59;;;;;;;;;;;23.00;65.70;;;;;;5014610;28;19953;-86
2022/06/05 10:16:31;;;;;;;;;;;22.90;63.60;;;;;;5035037;28;19913;-89
2022/06/05 10:19:04;;;;;;;;;;;23.00;63.00;;;;;;5035620;28;20115;-87
2022/06/05 10:21:34;;;;;;;;;;;22.70;63.00;;;;;;5034798;28;20000;-86
2022/06/05 10:24:02;;;;;;;;;;;22.70;63.30;;;;;;5031458;28;19909;-86
2022/06/05 10:26:29;;;;;;;;;;;22.60;63.90;;;;;;5030701;28;20380;-87
2022/06/05 10:29:10;;;;;;;;;;;22.60;64.80;;;;;;5030729;28;19913;-86
2022/06/05 10:31:36;;;;;;;;;;;22.60;65.00;;;;;;5030779;28;19978;-85
2022/06/05 10:34:02;;;;;;;;;;;22.60;64.40;;;;;;5014302;28;20442;-85
2022/06/05 10:36:33;;;;;;;;;;;22.60;64.40;;;;;;5031275;28;19952;-86
2022/06/05 10:39:04;;;;;;;;;;;22.60;66.40;;;;;;5014230;28;19963;-86
2022/06/05 10:41:30;;;;;;;;;;;22.50;66.90;;;;;;5032978;28;20411;-86
2022/06/05 10:44:14;;;;;;;;;;;22.40;71.00;;;;;;5032390;28;19963;-86
2022/06/05 10:46:44;;;;;;;;;;;22.30;73.00;;;;;;5014013;28;19917;-86
2022/06/05 10:49:14;;;;;;;;;;;22.00;73.40;;;;;;5014648;28;19913;-86
2022/06/05 10:51:43;;;;;;;;;;;21.80;74.00;;;;;;5016697;28;19955;-85
2022/06/05 10:54:14;;;;;;;;;;;21.80;74.60;;;;;;5024832;28;19917;-84
2022/06/05 10:56:54;;;;;;;;;;;21.70;74.30;;;;;;5030928;28;20330;-86
2022/06/05 10:59:23;;;;;;;;;;;21.60;75.30;;;;;;5013869;28;19913;-87
2022/06/05 11:02:01;;;;;;;;;;;21.50;75.80;;;;;;5027463;28;19948;-86
2022/06/05 11:04:32;;;;;;;;;;;21.40;76.00;;;;;;5037389;28;20409;-87
2022/06/05 11:07:21;;;;;;;;;;;21.40;77.10;;;;;;5031756;28;19932;-86
2022/06/05 11:09:49;;;;;;;;;;;21.30;76.70;;;;;;5011815;28;19917;-86
2022/06/05 11:15:01;;;;;;;;;;;21.30;78.20;;;;;;5030756;28;19919;-85
2022/06/05 11:17:48;;;;;;;;;;;21.10;78.20;;;;;;5029124;28;19948;-85
2022/06/05 11:20:15;;;;;;;;;;;21.10;79.10;;;;;;5012972;28;19947;-86
2022/06/05 11:22:45;;;;;;;;;;;21.00;79.60;;;;;;5012929;28;20011;-86
2022/06/05 11:25:13;;;;;;;;;;;20.80;79.60;;;;;;5015837;28;19914;-85
2022/06/05 11:27:59;;;;;;;;;;;20.60;79.90;;;;;;5026539;28;19918;-86
2022/06/05 11:30:32;;;;;;;;;;;20.60;79.90;;;;;;5012486;28;19909;-86
2022/06/05 11:33:13;;;;;;;;;;;20.30;79.10;;;;;;5012475;28;19984;-85
2022/06/05 11:35:39;;;;;;;;;;;20.30;79.60;;;;;;5022131;28;19909;-87
2022/06/05 11:38:23;;;;;;;;;;;20.20;80.20;;;;;;5022239;28;19914;-87
2022/06/05 11:40:54;;;;;;;;;;;20.20;80.70;;;;;;5011300;28;19925;-85
2022/06/05 11:43:26;;;;;;;;;;;20.10;80.70;;;;;;5031701;28;19955;-86
2022/06/05 11:45:54;;;;;;;;;;;20.10;81.10;;;;;;5009221;28;19917;-87
2022/06/05 11:48:23;;;;;;;;;;;20.10;81.80;;;;;;5011518;28;19982;-86
2022/06/05 11:51:01;;;;;;;;;;;20.10;82.10;;;;;;5029423;28;19957;-86
2022/06/05 11:53:38;;;;;;;;;;;20.20;81.60;;;;;;5029547;28;19928;-87
2022/06/05 11:56:23;;;;;;;;;;;20.20;81.80;;;;;;5028871;28;19956;-85
2022/06/05 11:59:09;;;;;;;;;;;20.30;81.40;;;;;;5013072;28;19909;-87
2022/06/05 12:01:36;;;;;;;;;;;20.60;79.70;;;;;;5030651;28;19931;-87
2022/06/05 12:04:20;;;;;;;;;;;20.40;80.70;;;;;;5052623;28;19905;-89
2022/06/05 12:06:51;;;;;;;;;;;20.20;81.00;;;;;;5021661;28;20342;-89
2022/06/05 12:09:19;;;;;;;;;;;20.10;80.20;;;;;;5012618;28;20003;-87
2022/06/05 12:11:59;;;;;;;;;;;20.00;81.10;;;;;;5013379;28;19909;-88
2022/06/05 12:14:30;;;;;;;;;;;19.90;81.70;;;;;;5018457;28;19913;-87
2022/06/05 12:17:14;;;;;;;;;;;19.90;81.60;;;;;;5007443;28;20384;-89
2022/06/05 12:19:59;;;;;;;;;;;19.80;81.10;;;;;;5010301;28;20292;-89
2022/06/05 12:22:46;;;;;;;;;;;19.90;81.80;;;;;;5013179;28;19921;-89
2022/06/05 12:25:25;;;;;;;;;;;19.80;80.70;;;;;;5038834;28;19917;-87
2022/06/05 12:27:57;;;;;;;;;;;19.80;81.20;;;;;;5042499;28;19968;-90
2022/06/05 12:30:31;;;;;;;;;;;19.90;81.50;;;;;;5045200;28;19988;-89
2022/06/05 12:33:07;;;;;;;;;;;19.90;81.50;;;;;;5022627;28;20291;-88
2022/06/05 12:35:35;;;;;;;;;;;20.00;81.40;;;;;;5021581;28;19971;-89
2022/06/05 12:38:00;;;;;;;;;;;20.20;80.50;;;;;;5022782;28;19910;-89
2022/06/05 12:40:35;;;;;;;;;;;20.10;80.50;;;;;;5034793;28;19917;-88
2022/06/05 12:43:04;;;;;;;;;;;20.10;80.10;;;;;;5017192;28;20627;-89
2022/06/05 12:45:31;;;;;;;;;;;20.10;80.10;;;;;;5026251;28;19917;-89
2022/06/05 12:48:15;;;;;;;;;;;20.00;80.40;;;;;;5023251;28;19963;-89
2022/06/05 12:50:49;;;;;;;;;;;20.10;80.50;;;;;;5032569;28;19916;-89
2022/06/05 12:53:30;;;;;;;;;;;20.10;80.30;;;;;;5033934;28;20356;-89
2022/06/05 12:55:59;;;;;;;;;;;20.20;80.40;;;;;;5045274;28;19909;-88
2022/06/05 12:58:39;;;;;;;;;;;20.10;80.50;;;;;;5016914;28;19990;-88
2022/06/05 13:01:33;;;;;;;;;;;20.10;80.40;;;;;;5016274;28;20440;-87
2022/06/05 13:04:04;;;;;;;;;;;20.00;80.10;;;;;;4999587;28;19916;-87
2022/06/05 13:06:33;;;;;;;;;;;20.00;80.80;;;;;;5018281;28;19963;-88
2022/06/05 13:09:12;;;;;;;;;;;;;;;;;;;;;
2022/06/05 13:11:40;;;;;;;;;;;20.10;80.40;;;;;;5034610;28;19913;-88
2022/06/05 13:14:33;;;;;;;;;;;20.10;80.40;;;;;;5028387;28;19956;-90
2022/06/05 13:17:12;;;;;;;;;;;20.10;81.40;;;;;;5017145;28;20012;-89
2022/06/05 13:19:53;;;;;;;;;;;20.10;81.00;;;;;;5033594;28;19956;-86
2022/06/05 13:22:51;;;;;;;;;;;20.10;81.60;;;;;;5019560;28;20050;-88
2022/06/05 13:25:44;;;;;;;;;;;20.00;80.70;;;;;;5013210;28;20284;-88
2022/06/05 13:28:13;;;;;;;;;;;20.10;81.30;;;;;;5020742;28;19916;-89
2022/06/05 13:30:56;;;;;;;;;;;20.10;82.10;;;;;;5019725;28;19913;-89
2022/06/05 13:33:42;;;;;;;;;;;20.10;81.50;;;;;;5016449;28;20028;-88
2022/06/05 13:36:16;;;;;;;;;;;20.30;82.50;;;;;;5012946;28;19909;-88
2022/06/05 13:38:58;;;;;;;;;;;20.40;80.90;;;;;;5012916;28;20367;-89
2022/06/05 13:41:30;;;;;;;;;;;20.50;81.60;;;;;;5039381;28;19959;-88
2022/06/05 13:44:02;;;;;;;;;;;20.50;79.30;;;;;;5076284;28;19901;-88
2022/06/05 13:46:31;;;;;;;;;;;20.60;79.80;;;;;;5039553;28;19941;-90
2022/06/05 13:49:09;;;;;;;;;;;20.70;79.80;;;;;;5036902;28;19952;-88
2022/06/05 13:51:38;;;;;;;;;;;20.80;79.40;;;;;;5033991;28;19928;-88
2022/06/05 13:54:14;;;;;;;;;;;20.90;80.40;;;;;;5018484;28;19916;-87
2022/06/05 13:56:59;;;;;;;;;;;21.00;78.60;;;;;;5016036;28;20014;-87
2022/06/05 13:59:27;;;;;;;;;;;21.10;79.50;;;;;;5032490;28;20035;-89
2022/06/05 14:02:03;;;;;;;;;;;21.20;79.20;;;;;;5016894;28;20359;-88
2022/06/05 14:04:28;;;;;;;;;;;21.30;78.20;;;;;;5015428;28;19992;-89
2022/06/05 14:07:00;;;;;;;;;;;21.50;77.60;;;;;;5015698;28;19944;-89
2022/06/05 14:09:32;;;;;;;;;;;21.40;77.30;;;;;;5014377;28;19955;-89
2022/06/05 14:11:57;;;;;;;;;;;21.30;77.90;;;;;;5015263;28;19913;-88
2022/06/05 14:14:34;;;;;;;;;;;21.20;77.50;;;;;;5014520;28;20002;-90
2022/06/05 14:17:00;;;;;;;;;;;21.20;77.10;;;;;;5013738;28;19910;-88
2022/06/05 14:19:27;;;;;;;;;;;21.00;77.30;;;;;;5013584;28;19913;-87
2022/06/05 14:21:54;;;;;;;;;;;20.70;77.50;;;;;;5015865;28;19955;-87
2022/06/05 14:24:23;;;;;;;;;;;20.70;79.20;;;;;;5038273;28;20083;-90
2022/06/05 14:26:52;;;;;;;;;;;20.60;79.90;;;;;;5023295;28;19913;-87
2022/06/05 14:29:20;;;;;;;;;;;20.50;80.80;;;;;;5012494;28;19952;-87
2022/06/05 14:31:57;;;;;;;;;;;20.50;81.20;;;;;;5013446;28;19916;-86
2022/06/05 14:34:22;;;;;;;;;;;20.50;81.10;;;;;;5013729;28;19979;-87
2022/06/05 14:36:50;;;;;;;;;;;20.60;81.90;;;;;;5031252;28;20336;-88
2022/06/05 14:39:33;;;;;;;;;;;20.50;82.00;;;;;;5012139;28;20020;-87
2022/06/05 14:42:05;;;;;;;;;;;20.50;82.00;;;;;;5013632;28;19916;-87
2022/06/05 14:44:37;;;;;;;;;;;20.50;82.30;;;;;;5014785;28;19924;-89
2022/06/05 14:47:11;;;;;;;;;;;20.40;82.60;;;;;;5014223;28;20003;-90
2022/06/05 14:49:55;;;;;;;;;;;20.30;82.80;;;;;;5013930;28;19935;-89
2022/06/05 14:52:20;;;;;;;;;;;20.20;83.50;;;;;;5019412;28;19941;-90